sensor_id;sensor_type;location;lat;lon;timestamp;pressure;altitude;pressure_sealevel;temperature;humidity
22582;BME280;47125;48.542;9.052;2024-02-04T00:00:54;97060.63;;;8.63;74.83
22582;BME280;47125;48.542;9.052;2024-02-04T00:10:58;97079.44;;;8.55;75.75
22582;BME280;47125;48.542;9.052;2024-02-04T00:21:01;97058.97;;;8.56;75.39
22582;BME280;47125;48.542;9.052;2024-02-04T00:31:05;97042.38;;;8.60;75.19
22582;BME280;47125;48.542;9.052;2024-02-04T00:41:08;97019.00;;;8.49;75.66
22582;BME280;47125;48.542;9.052;2024-02-04T00:51:11;97008.91;;;8.38;75.96
22582;BME280;47125;48.542;9.052;2024-02-04T01:01:15;96991.91;;;8.39;75.96
22582;BME280;47125;48.542;9.052;2024-02-04T01:11:19;97003.97;;;8.28;76.50
22582;BME280;47125;48.542;9.052;2024-02-04T01:21:22;96996.09;;;8.20;76.75
22582;BME280;47125;48.542;9.052;2024-02-04T01:31:25;96980.13;;;8.20;76.75
22582;BME280;47125;48.542;9.052;2024-02-04T01:41:28;96966.44;;;8.23;76.58
22582;BME280;47125;48.542;9.052;2024-02-04T01:51:32;96943.66;;;8.08;77.07
22582;BME280;47125;48.542;9.052;2024-02-04T02:01:34;96960.41;;;8.02;77.35
22582;BME280;47125;48.542;9.052;2024-02-04T02:11:40;96986.16;;;7.95;77.61
22582;BME280;47125;48.542;9.052;2024-02-04T02:21:44;96982.50;;;8.02;77.56
22582;BME280;47125;48.542;9.052;2024-02-04T02:31:50;96981.25;;;7.98;77.68
22582;BME280;47125;48.542;9.052;2024-02-04T02:41:55;96971.81;;;7.89;78.52
22582;BME280;47125;48.542;9.052;2024-02-04T02:52:00;96968.50;;;7.87;78.94
22582;BME280;47125;48.542;9.052;2024-02-04T03:02:02;96978.47;;;7.78;79.70
22582;BME280;47125;48.542;9.052;2024-02-04T03:12:06;96977.91;;;7.83;79.67
22582;BME280;47125;48.542;9.052;2024-02-04T03:22:09;96979.78;;;7.89;79.28
22582;BME280;47125;48.542;9.052;2024-02-04T03:32:13;96990.75;;;7.80;80.02
22582;BME280;47125;48.542;9.052;2024-02-04T03:42:15;96993.22;;;7.81;79.75
22582;BME280;47125;48.542;9.052;2024-02-04T03:52:20;96972.63;;;7.90;79.62
22582;BME280;47125;48.542;9.052;2024-02-04T04:02:23;96956.78;;;7.75;80.25
22582;BME280;47125;48.542;9.052;2024-02-04T04:12:27;96925.59;;;7.97;79.05
22582;BME280;47125;48.542;9.052;2024-02-04T04:22:29;96930.47;;;7.93;79.27
22582;BME280;47125;48.542;9.052;2024-02-04T04:32:33;96962.81;;;7.97;78.75
22582;BME280;47125;48.542;9.052;2024-02-04T04:42:35;96935.97;;;7.85;79.05
22582;BME280;47125;48.542;9.052;2024-02-04T04:52:39;96937.34;;;7.74;79.34
22582;BME280;47125;48.542;9.052;2024-02-04T05:02:42;96964.84;;;7.60;79.40
22582;BME280;47125;48.542;9.052;2024-02-04T05:12:48;96963.13;;;7.74;78.89
22582;BME280;47125;48.542;9.052;2024-02-04T05:22:51;96981.72;;;7.74;78.28
22582;BME280;47125;48.542;9.052;2024-02-04T05:32:56;96979.91;;;7.74;78.18
22582;BME280;47125;48.542;9.052;2024-02-04T05:42:59;97004.78;;;7.67;78.30
22582;BME280;47125;48.542;9.052;2024-02-04T05:53:04;96990.81;;;7.58;78.86
22582;BME280;47125;48.542;9.052;2024-02-04T06:03:07;96994.75;;;7.62;79.16
22582;BME280;47125;48.542;9.052;2024-02-04T06:13:11;96985.44;;;7.52;80.37
22582;BME280;47125;48.542;9.052;2024-02-04T06:23:13;96976.38;;;7.40;81.26
22582;BME280;47125;48.542;9.052;2024-02-04T06:33:17;96991.09;;;7.42;81.37
22582;BME280;47125;48.542;9.052;2024-02-04T06:43:19;96998.34;;;7.55;81.17
22582;BME280;47125;48.542;9.052;2024-02-04T06:53:23;96989.00;;;7.59;80.66
22582;BME280;47125;48.542;9.052;2024-02-04T07:03:26;97008.16;;;7.54;80.90
22582;BME280;47125;48.542;9.052;2024-02-04T07:13:30;97020.88;;;7.59;80.43
22582;BME280;47125;48.542;9.052;2024-02-04T07:23:32;97005.22;;;7.70;80.15
22582;BME280;47125;48.542;9.052;2024-02-04T07:33:36;96977.41;;;7.73;80.32
22582;BME280;47125;48.542;9.052;2024-02-04T07:43:39;96983.41;;;7.82;79.68
22582;BME280;47125;48.542;9.052;2024-02-04T07:53:42;97002.50;;;7.92;79.17
22582;BME280;47125;48.542;9.052;2024-02-04T08:03:45;96995.19;;;8.00;79.14
22582;BME280;47125;48.542;9.052;2024-02-04T08:13:50;96981.31;;;8.05;79.01
22582;BME280;47125;48.542;9.052;2024-02-04T08:23:52;96976.38;;;8.08;78.22
22582;BME280;47125;48.542;9.052;2024-02-04T08:33:56;96986.16;;;8.29;77.97
22582;BME280;47125;48.542;9.052;2024-02-04T08:43:59;96966.34;;;8.38;78.01
22582;BME280;47125;48.542;9.052;2024-02-04T08:54:06;96962.66;;;8.46;77.07
22582;BME280;47125;48.542;9.052;2024-02-04T09:04:08;96984.75;;;8.40;77.19
22582;BME280;47125;48.542;9.052;2024-02-04T09:14:12;96971.25;;;8.48;76.70
22582;BME280;47125;48.542;9.052;2024-02-04T09:24:15;96983.19;;;8.58;75.69
22582;BME280;47125;48.542;9.052;2024-02-04T09:34:19;96987.53;;;8.79;75.10
22582;BME280;47125;48.542;9.052;2024-02-04T09:44:23;96977.94;;;8.98;74.39
22582;BME280;47125;48.542;9.052;2024-02-04T09:54:27;96991.91;;;9.06;73.99
22582;BME280;47125;48.542;9.052;2024-02-04T10:04:32;97002.97;;;9.10;74.08
22582;BME280;47125;48.542;9.052;2024-02-04T10:14:36;97007.47;;;9.29;73.48
22582;BME280;47125;48.542;9.052;2024-02-04T10:24:38;96980.03;;;9.22;73.75
22582;BME280;47125;48.542;9.052;2024-02-04T10:34:42;96945.31;;;9.81;71.68
22582;BME280;47125;48.542;9.052;2024-02-04T10:44:46;96928.28;;;9.69;71.40
22582;BME280;47125;48.542;9.052;2024-02-04T10:54:52;96917.81;;;10.38;68.78
22582;BME280;47125;48.542;9.052;2024-02-04T11:04:55;96905.72;;;10.67;67.80
22582;BME280;47125;48.542;9.052;2024-02-04T11:15:00;96920.09;;;11.28;64.90
22582;BME280;47125;48.542;9.052;2024-02-04T11:25:11;96950.03;;;11.86;63.03
22582;BME280;47125;48.542;9.052;2024-02-04T11:35:18;96926.22;;;12.33;61.14
22582;BME280;47125;48.542;9.052;2024-02-04T11:45:23;96926.41;;;12.01;61.52
22582;BME280;47125;48.542;9.052;2024-02-04T11:55:30;96903.84;;;11.73;63.58
22582;BME280;47125;48.542;9.052;2024-02-04T12:05:33;96912.16;;;11.40;64.89
22582;BME280;47125;48.542;9.052;2024-02-04T12:15:38;96880.41;;;11.50;64.44
22582;BME280;47125;48.542;9.052;2024-02-04T12:25:41;96880.47;;;11.61;64.97
22582;BME280;47125;48.542;9.052;2024-02-04T12:35:50;96863.56;;;11.86;64.21
22582;BME280;47125;48.542;9.052;2024-02-04T12:45:55;96842.28;;;11.91;64.15
22582;BME280;47125;48.542;9.052;2024-02-04T12:55:59;96844.91;;;11.79;64.36
22582;BME280;47125;48.542;9.052;2024-02-04T13:06:02;96830.25;;;11.82;64.05
22582;BME280;47125;48.542;9.052;2024-02-04T13:16:06;96807.72;;;12.07;63.69
22582;BME280;47125;48.542;9.052;2024-02-04T13:26:09;96805.91;;;12.20;63.04
22582;BME280;47125;48.542;9.052;2024-02-04T13:36:12;96821.59;;;12.16;62.76
22582;BME280;47125;48.542;9.052;2024-02-04T13:46:15;96811.47;;;11.70;64.35
22582;BME280;47125;48.542;9.052;2024-02-04T13:56:19;96819.56;;;11.82;64.88
22582;BME280;47125;48.542;9.052;2024-02-04T14:06:22;96819.78;;;11.62;66.66
22582;BME280;47125;48.542;9.052;2024-02-04T14:16:26;96824.22;;;11.68;66.81
22582;BME280;47125;48.542;9.052;2024-02-04T14:26:28;96827.09;;;11.30;67.21
22582;BME280;47125;48.542;9.052;2024-02-04T14:36:32;96830.34;;;11.14;67.17
22582;BME280;47125;48.542;9.052;2024-02-04T14:46:35;96846.69;;;10.99;67.84
22582;BME280;47125;48.542;9.052;2024-02-04T14:56:39;96874.13;;;10.88;68.58
22582;BME280;47125;48.542;9.052;2024-02-04T15:06:42;96867.38;;;10.86;69.41
22582;BME280;47125;48.542;9.052;2024-02-04T15:16:47;96876.78;;;10.64;69.92
22582;BME280;47125;48.542;9.052;2024-02-04T15:26:50;96871.69;;;10.56;70.15
22582;BME280;47125;48.542;9.052;2024-02-04T15:36:55;96869.00;;;10.62;70.57
22582;BME280;47125;48.542;9.052;2024-02-04T15:46:58;96864.66;;;10.61;70.97
22582;BME280;47125;48.542;9.052;2024-02-04T15:57:04;96858.81;;;10.46;71.72
22582;BME280;47125;48.542;9.052;2024-02-04T16:07:07;96845.50;;;10.39;72.20
22582;BME280;47125;48.542;9.052;2024-02-04T16:17:12;96856.72;;;10.10;73.81
22582;BME280;47125;48.542;9.052;2024-02-04T16:27:18;96859.28;;;9.92;74.09
22582;BME280;47125;48.542;9.052;2024-02-04T16:37:22;96847.84;;;9.78;75.16
22582;BME280;47125;48.542;9.052;2024-02-04T16:47:24;96858.13;;;9.75;75.29
22582;BME280;47125;48.542;9.052;2024-02-04T16:57:28;96859.97;;;9.68;75.89
22582;BME280;47125;48.542;9.052;2024-02-04T17:07:31;96867.59;;;9.64;75.93
22582;BME280;47125;48.542;9.052;2024-02-04T17:17:35;96865.56;;;9.47;76.78
22582;BME280;47125;48.542;9.052;2024-02-04T17:27:38;96861.94;;;9.28;77.83
22582;BME280;47125;48.542;9.052;2024-02-04T17:37:43;96850.22;;;9.29;77.83
22582;BME280;47125;48.542;9.052;2024-02-04T17:47:45;96847.97;;;9.39;77.08
22582;BME280;47125;48.542;9.052;2024-02-04T17:57:51;96849.63;;;9.14;77.77
22582;BME280;47125;48.542;9.052;2024-02-04T18:07:54;96847.41;;;9.04;77.98
22582;BME280;47125;48.542;9.052;2024-02-04T18:17:58;96831.00;;;8.94;78.53
22582;BME280;47125;48.542;9.052;2024-02-04T18:28:01;96826.09;;;8.98;78.18
22582;BME280;47125;48.542;9.052;2024-02-04T18:38:06;96839.59;;;8.90;78.64
22582;BME280;47125;48.542;9.052;2024-02-04T18:48:09;96842.50;;;8.81;79.03
22582;BME280;47125;48.542;9.052;2024-02-04T18:58:13;96841.28;;;8.71;80.14
22582;BME280;47125;48.542;9.052;2024-02-04T19:08:16;96829.78;;;8.70;79.84
22582;BME280;47125;48.542;9.052;2024-02-04T19:18:19;96836.53;;;8.66;80.27
22582;BME280;47125;48.542;9.052;2024-02-04T19:28:22;96842.28;;;8.63;80.38
22582;BME280;47125;48.542;9.052;2024-02-04T19:38:26;96824.25;;;8.59;80.21
22582;BME280;47125;48.542;9.052;2024-02-04T19:48:28;96820.75;;;8.32;80.73
22582;BME280;47125;48.542;9.052;2024-02-04T19:58:32;96823.63;;;8.44;79.80
22582;BME280;47125;48.542;9.052;2024-02-04T20:08:35;96812.56;;;8.40;79.89
22582;BME280;47125;48.542;9.052;2024-02-04T20:18:39;96800.69;;;8.36;79.92
22582;BME280;47125;48.542;9.052;2024-02-04T20:28:42;96796.41;;;8.35;79.92
22582;BME280;47125;48.542;9.052;2024-02-04T20:38:46;96792.25;;;8.19;80.57
22582;BME280;47125;48.542;9.052;2024-02-04T20:48:48;96770.75;;;8.14;80.25
22582;BME280;47125;48.542;9.052;2024-02-04T20:58:52;96758.88;;;8.04;81.29
22582;BME280;47125;48.542;9.052;2024-02-04T21:08:55;96765.22;;;8.16;80.45
22582;BME280;47125;48.542;9.052;2024-02-04T21:18:59;96776.28;;;8.19;80.29
22582;BME280;47125;48.542;9.052;2024-02-04T21:29:03;96768.09;;;8.08;79.89
22582;BME280;47125;48.542;9.052;2024-02-04T21:39:07;96767.88;;;8.03;80.07
22582;BME280;47125;48.542;9.052;2024-02-04T21:49:09;96758.03;;;8.03;79.67
22582;BME280;47125;48.542;9.052;2024-02-04T21:59:13;96759.28;;;8.07;79.47
22582;BME280;47125;48.542;9.052;2024-02-04T22:09:16;96742.88;;;7.91;79.81
22582;BME280;47125;48.542;9.052;2024-02-04T22:19:20;96754.53;;;7.96;79.50
22582;BME280;47125;48.542;9.052;2024-02-04T22:29:24;96755.75;;;7.74;79.61
22582;BME280;47125;48.542;9.052;2024-02-04T22:39:28;96746.97;;;7.80;79.04
22582;BME280;47125;48.542;9.052;2024-02-04T22:49:30;96733.84;;;7.78;78.70
22582;BME280;47125;48.542;9.052;2024-02-04T22:59:34;96732.81;;;7.66;78.99
22582;BME280;47125;48.542;9.052;2024-02-04T23:09:36;96725.41;;;7.49;79.39
22582;BME280;47125;48.542;9.052;2024-02-04T23:19:40;96738.25;;;7.45;79.66
22582;BME280;47125;48.542;9.052;2024-02-04T23:29:43;96739.91;;;7.46;80.08
22582;BME280;47125;48.542;9.052;2024-02-04T23:39:47;96741.72;;;7.33;80.99
22582;BME280;47125;48.542;9.052;2024-02-04T23:49:49;96749.03;;;7.31;81.78
22582;BME280;47125;48.542;9.052;2024-02-04T23:59:53;96732.66;;;7.27;81.62
